Create Custom Reports and Graphics: Custom Report

North Region Latest Observations

Map

10 Minute Data

Winnemucca/Elko Latest Observations

Map

10 Minute Data

South Region Latest Observations

Map

10 Minute Data

Latest Observation

108 Stations

10 Minute Data
as of 8/31/26 7:26 AM PDT
Station Date Time Temp (°F) RH (%) Dew Pt (°F) Wind Spd (mph) Wind Dir (°) Wind Gust (mph) Wind Gst Dir (°) Latest Rain (In) Soil Moist (%) Soil Temp (°F) Daily Rain (In) Daily Min Temp (°F) Daily Max Temp (°F) Daily Max Wind (mph)
Hobart Mills 8/31/26 0720 40.8   3.6 63   9 29.2   0.3 0.1   0.1 W | 273 1.7   1.7 W | 273 0.00 7.7   0.0 66.2   0.3 0.00 40.1   4.5 47.3   3.2 4.2   0.1
Prosser Dam 8/31/26 0720 38.4   3.4 84   11 34.1   0.4 0.0   0.4 N | 0 0.0   2.2 SSW | 213 0.00 5.4   0.0 63.7   0.1 0.00 36.9   4.6 48.1   4.1 3.1   2.1
West Incline Village 8/31/26 0720 53.9   1.6 75   42 46.3   22.2 2.4   0.5 NNE | 30 2.9   0.7 NE | 34 0.00 11.9   0.1 59.1   0.5 0.00 53.0   1.6 57.6   3.8 4.2   2.4
Incline Village (Fairview Blvd) 8/31/26 0720 55.0   0.3 80   53 49.0   27.4 0.0   0.0 N | 0 0.0   0.0 NE | 51 0.00 7.7   0.0 72.2   0.5 0.00 54.1   0.8 59.2   2.5 2.4   2.9
Incline Village (Diamond Peak) 8/31/26 0720 54.9   1.8 50   20 36.8   13.6 0.2   0.2 ESE | 112 1.6   1.6 ESE | 108 0.00 2.5   0.0 62.0   0.0 0.00 53.8   2.2 57.5   3.9 3.4   0.2
Incline Village (Mill Creek) 5/30/36 1610 74.5 37 46.5 0.5 SW | 236 1.7 SSW | 213 0.00 0.0 0.0 0.00 74.4 74.5 1.7
Incline Village (Lakeshore Blvd) 8/31/26 0720 47.3   2.9 76   16 40.3   8.7 1.0   1.0 NE | 37 2.0   1.1 ENE | 66 0.00 19.1   2.3 59.1   0.9 0.00 46.4   3.3 51.6   3.1 2.9   0.7
Glenbrook 8/31/26 0720 49.9   4.8 81   23 44.3   12.9 0.6   1.3 ESE | 120 2.4   2.2 SE | 129 0.00 42.8   0.1 59.7   0.4 0.00 49.2   4.7 54.0   1.8 5.0   2.5
Zephyr Cove 8/31/26 0720 52.5   1.2 65   24 41.3   12.6 0.0   0.3 N | 0 0.0   1.9 N | 5 0.00 2.7   0.1 62.9   2.6 0.00 51.9   1.6 55.9   0.4 1.6   1.6
Kingsbury Grade 8/31/26 0720 48.8   4.1 64   21 37.1   6.5 0.1   6.2 NE | 36 1.6   8.3 NNE | 31 0.00 2.3   0.2 67.7   1.5 0.00 48.6   1.8 53.5   2.1 4.6   5.8
South Daggett Pass (Ridge) 8/31/26 0720 55.0   2.2 64   22 43.0   12.8 0.1   2.7 WNW | 286 1.6   3.6 NW | 317 0.00 2.2   0.0 64.4   0.2 0.00 53.7   2.4 60.0   3.6 3.4   7.1
Palomino Valley 8/31/26 0720 49.4   2.7 46   6 29.3   0.3 1.3   0.4 E | 79 2.6   0.6 E | 84 0.00 6.7   0.0 77.3   0.9 0.00 47.2   4.9 60.2   3.7 5.6   5.7
East Cold Springs 8/31/26 0720 57.6   2.0 39   2 33.0   2.8 2.3   0.8 SE | 138 4.6   0.4 ESE | 112 0.00 1.6   0.0 71.6   0.2 0.00 56.1   7.1 63.1   6.1 11.6   0.7
Peavine 8/22/26 1700 81.6   1.5 27   0 44.0   1.5 22.7   10.4 SW | 225 48.4   26.2 SW | 220 0.00 - 53.4   0.0 0.00 69.4   2.1 87.6   2.1 48.4   26.2
West Verdi Peak 8/31/26 0820 58.6   7.7 44   1 36.9   7.7 0.8   0.2 SE | 142 2.1   0.2 SE | 134 0.00 6.6   0.1 70.0   0.2 0.00 51.4   4.4 59.9   4.7 5.8   0.5
West Verdi 8/31/26 0720 53.8   6.6 53   4 37.3   4.5 1.0   1.0 ESE | 104 3.7   3.7 ESE | 103 0.00 6.3   0.0 80.8   0.6 0.00 50.2   4.4 60.4   0.5 6.0   7.6
South Verdi 8/31/26 0720 59.7   5.4 41   2 36.2   6.2 3.5   2.6 SSW | 194 7.9   4.2 SSW | 201 0.00 10.6   0.1 71.4   2.3 0.00 54.8   3.1 64.0   2.4 17.9   3.0
Northwest Reno 8/31/26 0720 59.7   0.3 39   3 34.5   2.2 0.8   0.8 WSW | 242 3.7   3.7 SW | 230 0.00 25.3   0.2 77.4   1.2 0.00 59.4   4.1 65.4   0.1 6.6   9.7
North Lawton 8/28/26 1620 63.8   17.1 74   52 55.4   16.5 1.5   11.6 ESE | 121 5.1   19.0 SE | 124 0.00 - 78.2   0.0 0.05 59.2   7.5 71.9   13.3 20.4   4.6
West Reno (Mogul) 8/31/26 0720 55.6   3.5 48   2 36.1   4.0 3.0   3.1 SW | 226 6.3   4.1 SW | 222 0.00 19.7   0.1 79.3   0.2 0.00 54.5   4.9 63.5   3.2 9.6   1.6
Caughlin (Hunter Lake Trail) 8/31/26 0720 62.3   4.8 38   0 36.5   4.4 0.0   1.3 N | 0 0.0   5.0 ESE | 118 0.00 16.6   0.1 74.4   0.3 0.00 59.1   5.5 66.3   4.6 8.8   2.4
ArrowCreek 8/31/26 0720 58.6   3.0 43   1 36.4   2.2 0.0   0.0 N | 0 0.0   0.0 S | 188 0.00 - 32.0   0.0 0.00 55.2   3.5 65.4   7.1 9.6   0.5
Tracy 8/31/26 0720 58.2   2.5 43   3 36.0   0.8 1.0   0.8 NE | 51 3.2   3.0 NE | 51 0.00 16.2   0.0 79.9   0.7 0.00 57.6   2.6 69.7   0.7 9.3   3.0
Virginia Highlands 8/31/26 0720 62.2   6.2 35   2 34.3   3.9 0.0   0.0 N | 0 0.0   0.0 SW | 226 0.00 8.0   0.1 74.8   0.3 0.00 59.5   5.3 64.1   3.9 4.2   0.6
Virginia City 8/31/26 0720 62.7   5.4 30   2 30.5   3.5 0.6   2.6 W | 264 1.9   3.6 W | 266 0.00 4.8   0.0 74.5   0.7 0.00 60.2   5.3 65.6   5.8 5.2   5.2
Six Mile Canyon 8/31/26 0720 58.6   3.1 43   0 36.4   2.9 1.4   0.2 SE | 126 2.5   0.0 SE | 133 0.00 12.4   0.1 77.4   1.2 0.00 57.4   5.3 67.0   1.3 5.2   5.0
Mt Rose Highway 8/31/26 0720 57.4   5.5 33   4 28.4   1.8 2.7   1.2 SW | 232 4.1   1.7 SW | 227 0.00 7.5   0.0 62.9   0.7 0.00 56.0   6.1 58.2   3.6 8.2   4.2
Pleasant Valley 8/31/26 0720 53.4   3.3 58   3 38.8   4.5 1.5   0.2 SSW | 201 3.0   0.2 S | 182 0.00 2.4   0.0 78.1   0.6 0.00 51.9   5.7 59.1   1.8 5.8   2.5
New Washoe City 8/31/26 0720 53.4   4.8 48   2 34.0   3.5 0.6   3.5 NE | 44 3.2   4.8 NE | 48 0.00 3.5   0.0 74.4   0.3 0.00 51.9   4.1 58.6   0.8 8.8   0.2
Franktown Creek 8/31/26 0720 51.5   3.3 60   2 38.2   2.5 0.2   0.2 WNW | 301 1.6   0.7 WNW | 300 0.00 7.1   0.1 73.2   0.4 0.00 49.7   3.1 58.5   3.6 3.1   1.4
Musgrove Creek 8/31/26 0720 60.2   3.0 47   3 40.0   4.2 0.0   0.1 N | 0 0.0   1.0 WSW | 258 0.00 10.2   0.1 61.2   0.4 0.00 57.7   6.1 63.4   4.1 3.7   0.4
East Carson 11/23/24 0110 28.6   28.4 - - 4.7   11.0 SW | 220 14.7   10.1 SW | 219 0.02 - 50.9   0.1 0.02 -25.9   79.1 42.9   14.6 16.0   10.7
Kings Canyon 8/31/26 0720 57.0   3.4 47   0 37.0   3.2 2.3   1.6 S | 190 3.6   1.4 SSW | 197 0.00 4.1   0.0 69.1   0.3 0.00 51.1   2.0 59.6   2.6 7.0   2.6
Carson City (Voltaire Canyon) 8/31/26 0720 61.6   3.5 47   7 41.2   7.2 3.8   1.7 SSW | 197 5.7   1.7 SSW | 195 0.00 2.8   0.0 79.2   0.5 0.00 59.5   3.8 69.5   5.2 11.4   4.0
Jacks Valley 8/31/26 0720 57.2   5.6 54   4 40.8   7.0 0.0   2.2 N | 0 0.0   4.7 ENE | 69 0.00 4.5   0.1 74.7   3.0 0.00 54.0   4.1 63.0   2.7 5.2   1.7
Genoa 8/31/26 0720 56.7   3.8 56   1 41.1   4.1 0.0   0.0 N | 0 0.0   0.0 NNW | 329 0.00 2.2   0.2 64.1   3.1 0.00 54.5   5.9 64.0   3.8 2.2   0.9
South Genoa (Walleys Hot Springs) 8/31/26 0720 47.3   0.9 83   12 42.3   3.3 0.0   0.0 N | 0 0.0   0.7 NE | 37 0.00 5.2   0.1 74.6   0.6 0.00 45.8   4.2 61.4   3.0 2.1   8.7
SW Gardnerville (HWY 88) 8/31/26 0720 51.1   6.2 69   4 41.2   4.4 0.0   1.8 N | 0 0.0   3.6 ENE | 65 0.00 2.8   0.0 70.5   0.1 0.00 46.1   3.6 61.7   3.8 6.0   4.2
Sheridan 8/31/26 0720 53.5   6.5 61   2 40.3   5.2 0.3   0.0 E | 87 1.7   0.1 E | 86 0.00 1.1   0.0 74.4   1.1 0.00 50.7   5.2 64.0   2.4 4.8   4.5
Ruhenstroth 8/31/26 0720 54.7   2.4 54   7 38.6   5.8 0.9   0.7 SW | 233 3.0   1.5 SW | 233 0.00 6.8   0.1 73.0   2.4 0.00 49.8   0.6 63.7   2.1 7.5   5.1
Double Spring 8/31/26 0720 47.2   5.5 71   8 38.3   8.4 0.4   1.5 WSW | 240 1.7   2.2 WSW | 247 0.00 25.5   0.1 70.4   2.9 0.00 45.7   7.0 56.2   1.2 5.3   0.9
North Topaz Lake 8/31/26 0720 61.7   2.5 33   1 32.5   1.6 4.2   1.9 NNE | 22 5.7   2.2 NNE | 28 0.00 7.2   0.1 66.3   2.8 0.00 58.9   0.9 66.8   0.8 6.5   4.5
Wild Oat Mountain 8/31/26 0720 61.0   2.3 41   8 36.8   7.3 2.2   0.1 E | 79 3.5   0.2 E | 79 0.00 5.7   0.0 70.0   2.5 0.00 59.1   5.1 65.8   2.7 6.6   7.3
Smith Valley 8/31/26 0720 56.9   2.2 49   4 37.8   4.1 0.1   0.7 ESE | 123 0.9   2.1 ESE | 122 0.00 2.8   0.0 76.3   1.3 0.00 55.6   5.7 68.5   2.5 12.3   2.1
Pine Grove Mountain 8/31/26 0720 58.5   6.0 24   13 22.1   5.3 0.5   4.2 NE | 46 2.6   4.8 NNE | 27 0.00 7.3   0.0 63.9   1.4 0.00 55.4   4.0 59.1   2.4 7.9   3.6
Paradise Hill 8/31/26 0720 54.4   2.8 31   10 24.6   4.3 0.4   1.1 NNW | 338 2.2   1.4 NNW | 341 0.00 10.2   0.0 71.9   0.7 0.00 43.8   2.7 66.0   2.5 15.8   4.5
Winnemucca 8/31/26 0720 52.8   2.3 36   2 26.8   3.2 9.8   4.1 NNE | 29 14.0   5.3 NNE | 24 0.00 5.8   0.0 75.0   0.0 0.00 49.4   0.2 62.3   0.7 14.0   5.3
NE Elko 8/31/26 0720 46.9   3.9 41   16 24.2   11.6 0.7   3.9 SE | 125 2.6   3.8 SE | 126 0.00 5.7   0.0 69.4   0.9 0.00 38.9   6.4 49.9   6.8 5.8   2.7
North Elko 8/31/26 0720 52.5   2.2 35   12 25.9   9.4 2.0   0.2 NNW | 341 4.2   0.0 NW | 325 0.00 24.9   0.0 72.4   0.6 0.00 51.0   3.0 62.4   4.0 10.7   8.3
South Elko 8/31/26 0720 - 56   5 - 2.5   2.5 ESE | 114 4.2   3.8 ESE | 108 0.00 13.7   0.0 67.6   0.2 0.00 54.6   4.1 - 11.7   2.4
Lamoille 8/31/26 0720 51.5   3.1 46   1 31.5   3.3 2.4   1.3 WSW | 253 3.4   1.9 W | 259 0.00 6.5   0.1 66.5   0.9 0.00 48.4   0.5 54.8   10.4 7.9   6.7
Reid Gardner Sub 8/31/26 0720 73.4   15.4 36   9 45.2   6.0 1.6   4.7 W | 268 3.5   8.1 W | 272 0.00 25.9   1.1 89.4   2.3 0.00 69.3   19.2 78.5   15.2 5.7   16.0
Corn Creek 8/31/26 0720 78.1   6.7 33   5 46.5   1.1 4.9   4.5 ESE | 103 8.7   7.8 ESE | 102 0.00 3.2   0.1 88.5   4.5 0.00 73.8   8.6 82.4   7.0 13.2   3.7
Lucky Strike 8/31/26 0720 73.1   1.8 32   5 41.7   2.6 9.3   7.0 S | 174 16.8   10.3 SE | 144 0.00 3.2   0.0 80.3   4.2 0.00 69.0   4.5 75.1   4.1 16.8   0.2
Lower Angel Peak 8/31/26 0720 67.3   4.1 41   11 42.7   4.1 5.6   2.6 ESE | 114 10.8   3.5 ESE | 120 0.00 3.2   0.0 74.2   3.2 0.00 61.8   4.8 68.8   3.7 11.6   2.0
Angel Peak 8/31/26 0720 56.2   1.8 55   13 40.2   5.2 11.2   7.5 SSE | 164 15.8   9.2 SE | 146 0.00 2.5   0.0 64.0   3.1 0.00 54.9   2.7 59.5   2.8 25.3   0.8
Upper Kyle Canyon 8/31/26 0720 61.8   0.3 48   12 42.1   7.4 6.5   1.2 N | 9 19.5   1.1 WNW | 288 0.00 7.8   0.1 76.0   1.2 0.00 60.3   0.9 65.2   0.1 19.6   11.3
Mt Charleston 8/31/26 0720 63.6   0.2 47   11 42.8   7.3 4.7   1.2 W | 269 12.7   1.4 WSW | 249 0.00 13.5   0.0 69.4   1.2 0.00 59.2   0.2 65.9   0.1 14.8   13.2
Mid Kyle Canyon 8/31/26 0720 66.9   3.1 41   11 42.5   5.1 5.6   1.3 E | 85 10.7   2.4 ENE | 74 0.00 5.8   0.1 74.8   3.2 0.00 60.5   5.8 68.4   3.6 17.5   3.6
Blue Diamond 8/31/26 0720 74.7   7.8 36   12 46.1   4.3 0.4   3.4 SW | 220 2.0   7.0 WSW | 248 0.00 1.2   0.0 86.2   2.7 0.00 70.1   11.5 82.9   2.4 6.8   13.2
Artesian Sub 8/31/26 0720 86.3   3.6 28   5 49.3   1.7 2.3   4.8 E | 95 5.0   6.6 ENE | 63 0.00 11.7   0.0 94.6   0.1 0.00 81.1   8.0 87.4   7.6 9.2   8.0
North Henderson 8/31/26 0720 88.0   3.7 29   6 51.5   2.8 5.2   6.3 S | 185 10.1   8.3 SSW | 198 0.00 10.5   0.1 99.3   0.7 0.00 84.4   6.7 91.8   3.7 10.1   12.9
Sandy Valley 8/31/26 0720 78.5   3.1 35   6 48.8   2.6 0.0   4.4 N | 0 0.0   5.5 NE | 48 0.00 8.6   0.4 89.8   2.1 0.00 74.2   5.8 83.3   3.0 9.7   4.0
Searchlight 8/31/26 0720 74.9   6.6 58   25 59.3   9.1 6.2   6.2 S | 183 8.9   8.4 S | 181 0.00 6.2   0.2 88.9   1.5 0.00 70.9   8.2 77.5   6.3 8.9   12.4
Laughlin 8/31/26 0720 91.0   0.6 45   11 66.6   8.5 4.8   2.2 SSW | 211 8.3   3.0 SW | 215 0.00 4.6   0.0 102.5   1.1 0.00 89.6   0.4 93.4   6.0 14.3   6.2
31Mission Hills 8/31/26 0720 82.1   4.6 43   18 57.5   10.2 7.9   3.9 S | 185 13.3   2.4 SSW | 200 0.00 7.6   0.1 88.9   2.4 0.00 80.9   4.7 86.9   4.1 14.8   4.7
32 Enterprise Sierra Cliffs 8/31/26 0720 81.2   3.2 26   6 43.3   4.1 7.2   6.6 SSE | 149 12.4   8.8 SSE | 156 0.00 1.4   0.0 85.0   4.1 0.00 78.0   4.9 85.1   2.6 18.4   12.9
29 Calico Basin 8/31/26 0720 76.8   5.5 30   10 42.8   6.6 2.3   12.7 SW | 214 3.4   17.5 SW | 216 0.00 2.7   0.1 86.7   2.1 0.00 75.4   6.2 83.2   0.9 13.4   16.9
28 Indian Springs 8/31/26 0720 72.9   12.9 27   8 37.0   1.2 2.3   6.1 WSW | 245 3.8   12.4 SW | 231 0.00 4.7   0.1 88.6   2.9 0.00 70.1   12.7 78.0   9.7 7.2   14.4
30 Jean 8/31/26 0720 74.8   4.5 33   7 43.7   2.0 1.9   0.4 S | 175 4.2   2.9 S | 183 0.00 5.3   0.2 85.7   3.2 0.00 71.0   5.5 83.0   2.3 16.0   1.2
VC Highlands NW 8/31/26 0720 62.0   3.5 33   5 32.7   7.4 0.0   0.0 N | 0 0.0   1.0 S | 187 0.00 1.6   0.0 64.4   1.6 0.00 59.3   7.3 62.7   3.8 2.5   3.1
Glenbrook-Spooner Summit 8/31/26 0720 50.4   4.9 66   12 39.6   9.6 4.7   4.3 WSW | 245 7.6   6.3 WSW | 239 0.00 7.8   0.1 65.6   2.2 0.00 47.8   6.1 50.8   1.2 7.6   2.5
Hobo Hot Springs 8/31/26 0720 49.3   3.6 72   1 40.8   4.0 0.1   0.4 ESE | 109 1.5   0.9 ESE | 111 0.00 1.0   0.0 69.8   0.3 0.00 44.5   4.1 54.4   8.1 3.2   5.5
Jack Valley Ranch 2 8/31/26 0720 57.5   6.5 51   2 39.4   6.9 0.6   1.5 N | 358 2.7   0.9 N | 2 0.00 2.2   0.1 76.0   1.3 0.00 54.6   5.2 62.7   1.3 9.9   3.4
Genoa North 2 8/31/26 0720 57.1   3.8 50   2 38.6   4.2 0.0   0.0 E | 82 0.4   0.4 E | 82 0.00 0.8   0.0 75.0   2.2 0.00 53.9   4.7 63.6   2.9 5.7   6.1
Mottsville 2 8/31/26 0720 51.4   5.0 68   4 41.2   6.2 0.0   1.5 SSE | 162 0.6   2.1 SSE | 164 0.00 1.2   0.0 73.8   0.9 0.00 47.5   3.6 61.2   2.9 3.4   7.5
Kingsbury Village 3 8/31/26 0720 50.5   1.0 52   10 33.7   6.4 2.4   1.4 NNE | 26 3.7   0.7 NNE | 31 0.00 3.1   0.0 61.4   0.6 0.00 49.3   3.5 55.7   2.6 4.5   3.2
Kingsbury-Benjamin Dr 2 8/31/26 0720 53.2   3.9 58   12 39.0   9.5 0.2   0.1 WSW | 238 2.7   1.7 SW | 222 0.00 3.4   0.2 68.7   2.9 0.00 52.9   4.6 55.6   1.3 3.4   2.4
Smith Valley-Wellington 8/31/26 0720 56.8   2.3 47   8 36.9   7.0 7.9   0.1 SW | 226 12.4   1.0 SW | 230 0.00 3.6   0.0 80.8   0.5 0.00 55.5   9.3 64.0   0.1 14.0   0.7
Sheridan South 2 8/31/26 0720 49.3   1.7 71   9 40.4   5.1 0.5   0.2 SW | 228 1.9   0.6 WSW | 238 0.00 0.5   0.0 73.4   1.8 0.00 47.0   2.9 59.7   0.6 3.0   4.7
Silver Springs 8/31/26 0720 57.9   0.0 41   1 34.5   0.7 1.8   0.0 WSW | 240 4.3   0.1 W | 259 0.00 5.1   0.1 79.7   0.6 0.00 54.2   2.5 67.2   1.5 6.1   7.7
Fernley 8/31/26 0720 58.7   0.8 32   1 28.9   1.8 1.4   2.7 SSE | 161 2.9   3.5 ESE | 119 0.00 3.0   0.1 73.4   1.6 0.00 54.9   1.5 63.6   0.9 9.6   1.1
Spanish Springs 8/31/26 0720 51.8   4.1 52   4 34.7   2.0 0.0   1.0 N | 0 0.0   1.6 NNW | 331 0.00 10.5   0.0 76.7   0.8 0.00 47.8   2.2 57.8   5.0 2.6   4.8
Suttcliffe South 2 8/31/26 0720 55.5   4.7 37   5 29.4   0.8 7.9   2.1 W | 264 10.2   2.1 W | 268 0.00 4.4   0.0 71.0   1.5 0.00 51.5   5.6 60.6   3.1 10.2   1.0
Lemmon Valley North 8/31/26 0720 42.8   5.1 48   11 24.3   0.1 0.4   0.4 NE | 35 1.6   1.6 NE | 52 0.00 2.1   0.0 72.4   0.9 0.00 39.0   3.1 52.8   1.6 4.2   1.0
Lemmon Valley NW 3 8/31/26 0720 49.5   4.5 48   7 30.4   0.9 0.5   0.3 NNE | 27 1.7   0.7 NNE | 28 0.00 1.2   0.2 71.2   2.0 0.00 46.0   5.3 58.1   1.9 7.0   0.2
VC Highlands North 8/31/26 0720 50.4   4.2 48   2 31.4   2.6 0.0   0.2 N | 0 0.0   1.1 N | 0 0.00 4.6   0.2 62.4   2.8 0.00 46.1   5.6 51.5   0.7 1.2   2.1
Upper Voltaire Cyn 8/31/26 0720 59.1   0.1 46   15 38.2   9.7 0.7   0.8 NNW | 346 1.5   4.1 NNW | 344 0.00 1.1   0.1 72.1   2.0 0.00 58.5   1.5 66.5   4.1 6.7   5.5
Yerington NW 8/31/26 0720 50.0   0.9 66   11 39.0   3.1 0.1   1.7 ENE | 57 1.2   1.7 ENE | 57 0.00 7.2   0.1 73.2   1.5 0.00 46.4   1.5 64.0   4.6 7.7   2.5
Spanish Springs SW 8/31/26 0720 55.2   2.8 41   4 31.7   0.1 0.1   1.4 NNW | 339 1.0   1.6 NNW | 339 0.00 1.4   0.1 73.6   1.9 0.00 52.2   4.6 63.5   2.8 3.6   3.2
Cosgrave 2 8/27/26 0750 62.9   4.1 34   3 33.8   1.4 2.6   0.5 WSW | 246 4.1   1.0 W | 267 0.00 3.8   0.1 77.4   2.9 0.00 62.7   3.3 77.4   3.5 11.2   3.9
Winnemucca-Grass Valley 2 8/31/26 0720 43.5   0.1 64   7 32.2   2.6 4.2   0.8 SE | 140 6.8   2.1 SE | 136 0.00 7.8   0.2 62.6   0.7 0.00 39.7   0.7 51.1   11.6 9.1   1.7
Winnemucca-Dutch Flat Rd 8/31/26 0720 53.9   1.8 35   2 27.1   2.7 6.4   0.8 NNE | 19 9.3   1.9 NNE | 26 0.00 6.1   0.0 72.1   0.2 0.00 51.5   0.7 63.8   0.6 13.3   4.2
Paradise Valley 2 8/31/26 0720 51.8   6.0 39   20 27.7   4.7 1.4   0.8 WSW | 252 3.4   1.1 W | 262 0.00 12.8   0.0 70.7   0.5 0.00 40.3   1.6 56.4   1.6 8.4   1.4
Golconda 2 8/31/26 0720 53.4   2.0 37   0 28.0   2.0 0.3   11.4 W | 277 1.6   15.5 W | 281 0.00 1.8   0.1 69.2   0.5 0.00 48.6   3.0 63.4   1.1 11.3   8.6
Battle Mountain - South 8/31/26 0720 44.8   4.4 37   2 20.4   5.3 0.6   0.3 SSW | 211 1.7   0.9 S | 170 0.00 9.1   0.0 73.3   0.7 0.00 39.4   6.3 51.5   12.2 6.2   4.7
Geiger Summit 8/31/26 0720 58.5   4.8 100   0 58.5   4.8 0.4   1.4 ESE | 102 1.4   1.6 E | 82 0.00 6.2   0.0 62.5   1.4 0.00 56.9   4.8 61.8   5.3 4.1   3.0
Combs Canyon 3 8/31/26 0720 56.2   3.8 50   4 38.1   1.6 1.2   0.8 WSW | 258 2.6   0.5 WSW | 253 0.00 0.9   0.0 74.0   1.2 0.00 55.3   3.0 64.2   2.5 7.9   9.4
Clear Creek 8/31/26 0720 56.5   6.2 49   4 37.5   7.8 0.1   0.1 NNW | 334 1.0   1.0 NW | 324 0.00 3.4   0.1 71.4   1.3 0.00 51.9   4.7 59.6   0.4 4.8   3.2
Eastlake 2 8/31/26 0720 52.0   2.2 69   4 42.3   3.6 1.1   0.5 SE | 131 3.2   0.9 SE | 134 0.00 3.4   0.0 73.9   0.6 0.00 47.8   2.8 58.5   1.4 3.7   3.4
Lovelock-Colado 2 8/31/26 0720 62.6   4.1 21   8 22.6   4.2 8.0   0.1 NE | 34 12.7   0.8 NNE | 28 0.00 - 75.5   1.2 0.00 52.1   5.6 64.6   3.2 18.8   4.5
Spanish Springs NW 8/31/26 0720 51.1   0.9 52   3 34.2   2.3 0.0   0.0 N | 3 0.6   0.1 N | 0 0.00 12.6   0.1 68.6   0.2 0.00 49.0   3.8 59.7   3.4 4.2   3.2
Battle Mountain NW 8/31/26 0720 51.5   6.9 33   2 23.6   4.2 4.8   4.1 WNW | 300 7.1   5.5 WNW | 300 0.00 8.9   0.1 75.6   0.2 0.00 43.6   10.9 60.0   7.1 11.2   2.8
Austin 2 8/31/26 0620 42.6   2.4 42   11 21.3   7.7 0.2   0.7 E | 87 1.7   0.6 E | 79 0.00 2.0   0.1 59.0   2.0 0.00 37.4   2.8 46.9   14.5 7.8   2.0
Elko-Osino 8/31/26 0720 45.8   7.1 40   10 23.1   11.9 0.4   6.3 ENE | 69 1.9   8.3 NE | 56 0.00 1.4   0.0 74.2   0.6 0.00 40.6   4.2 56.7   3.1 10.6   0.9
Elko-Bill Fishpond 2 8/31/26 0720 47.7   7.0 46   1 27.9   6.0 2.2   0.6 SW | 225 4.1   1.2 WSW | 244 0.00 3.4   0.1 66.2   3.0 0.00 41.9   4.6 49.8   13.5 8.6   5.0
Spring Creek SE 2 8/31/26 0720 46.0 46 26.4 3.1 E | 82 4.0 ENE | 75 0.00 0.3 68.3 0.00 42.8 58.3 11.8
Spring Creek NW 8/31/26 0720 51.9 35 25.1 0.5 ENE | 68 2.7 ESE | 112 0.00 2.3 71.2 0.00 47.9 60.4 7.6
Max     91.0 100 66.6 11.2 - 19.5 - 0.00 42.8 102.5 0.00 89.6 93.4 25.3
Avg     57.7 48 37.0 2.0 - 4.0 - 0.00 6.8 72.2 - - - -
Min     38.4 21 20.4 0.0 - 0.0 - 0.00 0.0 0.0 0.00 36.9 46.9 1.2

Latest Observation

108 Stations

Daily Data
as of 8/31/26 7:26 AM PDT
Station Date Daily Max Temp (°F) Daily Min Temp (°F) Daily Max RH (%) Daily Min RH (%) Wind Spd (mph) Wind Dir (°) Daily Max Wind (mph) Max Wind Dir (°) Time of Max Wind Daily Rain (In) Weekly Precip (In) Season Precip (In) Soil Moist (%) Fuel Temp (°F) Fuel Moisture (%) MinBV Day (V)
Hobart Mills 8/30/26 78.8   5.6 35.6   8.5 74   24 19   4 2.0   0.2 WSW | 258 15.6   6.1 SSW | 208 1353 0.00 0.03 - 7.6   0.0 60.0   0.0 8   4 12.5   0.1
Prosser Dam 8/30/26 77.6   4.1 32.3   10.0 96   2 21   4 3.0   1.3 WSW | 251 19.9   6.2 W | 269 1406 0.00 0.09 - 5.4   0.0 60.0   1.2 10   9 12.3   0.2
West Incline Village 8/30/26 70.3   2.4 51.4   0.1 54   33 23   2 2.9   0.6 NE | 46 14.2   6.7 S | 183 1623 0.00 0.26 - 11.9   0.1 61.7   2.6 9   11 12.5   0.1
Incline Village (Fairview Blvd) 8/30/26 72.6   4.1 53.3   1.3 55   28 21   8 1.3   0.9 SW | 224 11.2   8.6 WSW | 240 1416 0.00 0.33 - 7.7   0.1 65.1   2.9 8   10 12.7   0.2
Incline Village (Diamond Peak) 8/30/26 69.0   2.8 51.6   0.4 57   27 23   9 0.0   0.9 N | 0 11.2   3.0 NW | 322 1357 0.00 0.03 - 2.5   0.0 -11.4   0.1 - 12.5   0.1
Incline Village (Mill Creek) 8/30/26 73.6   4.0 48.5   4.6 57   34 20   9 1.5   0.4 E | 88 9.3   5.0 W | 278 1753 0.00 0.33 - 2.9   0.0 -8.5 - 12.5   0.1
Incline Village (Lakeshore Blvd) 8/30/26 72.1   4.0 43.0   5.0 76   19 23   11 1.1   2.4 SSW | 207 8.7   8.2 SW | 216 1836 0.00 0.30 - 20.1   3.5 60.2   0.3 10   4 12.4   0.1
Glenbrook 8/30/26 73.8   4.6 44.5   5.6 68   20 24   8 2.3   2.3 S | 183 11.4   7.0 WSW | 250 1836 0.00 0.30 - 42.7   0.2 54.6   1.6 20   14 12.6   0.1
Zephyr Cove 8/30/26 72.6   0.1 50.3   4.5 64   14 22   4 0.6   0.0 NW | 313 7.8   1.5 NW | 314 1617 0.00 0.32 - 2.7   0.0 64.0   0.2 9   10 12.6   0.1
Kingsbury Grade 8/30/26 73.8   2.8 46.8   3.3 63   23 22   4 2.4   0.5 ENE | 71 12.8   6.6 ESE | 116 1005 0.00 0.28 - 2.4   0.0 63.2   1.4 9   12 12.5   0.0
South Daggett Pass (Ridge) 8/30/26 70.4   4.7 51.3   1.8 61   28 22   4 2.2   0.3 SSW | 195 15.9   8.9 NNW | 332 1553 0.00 0.29 - 2.2   0.0 60.0   3.0 10   14 12.6   0.1
Palomino Valley 8/30/26 84.6   1.6 42.3   8.3 59   35 15   1 3.8   2.5 N | 5 17.4   14.0 N | 349 1720 0.00 0.03 - 6.7   0.0 68.1   0.6 7   5 12.6   0.1
East Cold Springs 8/30/26 80.8   2.8 49.1   4.1 45   35 19   1 6.7   1.7 W | 274 19.4   8.2 E | 99 1220 0.00 0.00 - 1.6   0.0 67.8   0.7 6   2 12.7   0.1
Peavine 8/21/26 85.5   2.3 67.3   4.2 34   3 21   5 8.3   2.3 SSW | 213 26.8   4.0 SSW | 210 2106 0.00 0.00 - - - - 12.6   0.0
West Verdi Peak 8/30/26 78.7   5.1 47.0   5.9 51   25 18   1 2.2   1.3 SW | 220 14.5   11.5 ESE | 102 1339 0.00 0.02 - 6.6   0.0 65.2   0.1 6   5 12.6   0.1
West Verdi 8/30/26 82.1   4.0 45.8   9.9 58   21 14   5 3.2   2.4 SW | 219 16.6   14.7 W | 260 1804 0.00 0.06 - 6.3   0.0 69.7   0.3 4   5 12.7   0.1
South Verdi 8/30/26 80.8   5.7 51.7   3.5 44   33 18   4 9.1   3.3 SSW | 200 23.5   17.0 SSW | 203 1907 0.00 0.08 - 10.6   0.0 69.6   3.0 6   5 12.7   0.1
Northwest Reno 8/30/26 81.3   3.5 55.3   1.0 43   41 17   3 5.3   6.3 NNE | 29 20.2   19.8 NNW | 345 1855 0.00 0.05 - 25.1   0.0 -17.7 - 12.6   0.1
North Lawton 8/27/26 85.2   2.6 66.7   6.0 35   16 18   2 8.9   1.0 SW | 230 25.0   2.4 SW | 236 1526 0.00 0.00 - - - - 12.6   0.0
West Reno (Mogul) 8/30/26 81.8   4.3 49.6   7.9 51   30 17   1 4.4   1.9 WSW | 247 18.5   12.0 W | 270 2034 0.00 0.00 - 19.7   0.1 71.7   0.1 2   5 12.6   0.1
Caughlin (Hunter Lake Trail) 8/30/26 81.6   5.2 53.6   3.3 46   37 17   2 4.8   3.1 S | 186 21.6   14.7 WNW | 286 1958 0.00 0.12 - 16.6   0.1 70.1   1.5 8   6 12.7   0.1
ArrowCreek 8/30/26 80.7   2.4 51.6   3.2 50   32 18   1 4.8   1.0 SSE | 152 17.3   12.9 NE | 45 1713 0.00 0.14 - - - - 12.4   0.2
Tracy 8/30/26 84.6   0.0 55.0   2.6 48   38 14   3 4.4   2.9 ESE | 117 15.0   11.9 ESE | 112 1236 0.00 0.09 - 16.2   0.0 73.4   0.9 7   5 12.8   0.0
Virginia Highlands 8/30/26 77.8   5.4 54.2   2.7 49   26 17   5 3.0   2.3 S | 179 17.5   8.8 E | 92 1144 0.00 0.12 - 8.0   0.1 67.4   1.2 7   6 12.6   0.1
Virginia City 8/30/26 75.6   3.5 54.9   2.0 43   33 19   5 4.8   3.6 N | 7 18.1   9.8 WNW | 301 1933 0.00 0.12 - 4.8   0.0 70.6   3.8 7   7 12.7   0.1
Six Mile Canyon 8/30/26 85.2   3.2 52.1   3.6 50   41 14   4 3.6   4.1 NE | 43 16.6   12.3 E | 97 1401 0.00 0.10 - 12.4   0.1 74.2   2.5 5   6 12.8   0.1
Mt Rose Highway 8/30/26 73.2   5.4 49.8   2.8 50   33 21   3 2.3   1.9 SSW | 197 15.5   16.5 WSW | 254 1929 0.00 0.23 - 7.4   0.0 59.9   0.4 8   7 12.6   0.1
Pleasant Valley 8/30/26 83.6   5.5 46.3   7.0 63   23 14   7 3.5   5.0 SSW | 198 22.7   10.7 SSW | 204 1519 0.00 0.14 - 2.4   0.0 70.6   0.6 9   8 12.6   0.1
New Washoe City 8/30/26 81.1   4.3 47.8   7.7 51   33 16   2 4.1   3.0 E | 87 18.1   12.0 WSW | 251 1611 0.00 0.08 - 3.5   0.0 68.8   1.4 9   7 12.6   0.1
Franktown Creek 8/30/26 81.1   3.8 46.6   7.1 66   27 17   2 1.6   1.5 WSW | 242 15.9   8.4 SSE | 167 1346 0.00 0.14 - 7.1   0.1 64.2   1.4 9   7 12.6   0.1
Musgrove Creek 8/30/26 77.5   3.4 51.5   3.3 51   26 20   3 1.8   0.5 SSW | 209 17.4   4.2 NNE | 20 1404 0.00 0.21 - 10.2   0.0 68.6   1.2 9   7 12.6   0.1
East Carson 11/22/24 63.8   0.3 41.7   4.6 85   21 21   9 14.9   6.0 SW | 224 46.6   12.7 S | 171 1835 0.05 0.05 4.48 2.5   0.0 53.9   0.3 9   0 12.6   0.0
Kings Canyon 8/30/26 79.8   3.6 49.1   4.8 55   37 19   6 4.6   0.4 SSW | 196 20.5   2.6 WSW | 241 1930 0.00 0.13 - 4.1   0.0 68.3   1.4 7   8 12.6   0.0
Carson City (Voltaire Canyon) 8/30/26 81.3   3.1 55.7   1.8 44   41 18   5 6.1   2.2 W | 271 18.6   13.7 WSW | 240 2015 0.00 0.00 - 2.8   0.0 -10.9 - 12.7   0.1
Jacks Valley 8/30/26 80.5   3.0 49.8   4.0 53   33 18   5 4.1   1.1 WNW | 296 20.1   8.6 WNW | 292 1735 0.00 0.24 - 4.5   0.0 69.9   2.5 6   14 12.7   0.1
Genoa 8/30/26 83.4   3.4 48.6   5.5 61   35 19   3 0.9   0.2 WSW | 246 14.2   2.1 NNE | 22 1555 0.00 0.15 - 2.2   0.2 68.5   1.4 10   13 12.4   0.1
South Genoa (Walleys Hot Springs) 8/30/26 83.3   3.0 41.6   9.2 82   15 19   2 3.8   0.0 NNW | 340 24.6   0.2 WSW | 254 1953 0.00 0.13 - 4.9   0.0 71.0   1.0 8   11 12.6   0.1
SW Gardnerville (HWY 88) 8/30/26 81.2   2.0 42.5   6.3 84   14 20   1 3.7   1.6 NNW | 327 18.5   11.5 WNW | 283 1806 0.00 0.03 - 2.8   0.0 66.7   1.0 10   8 9.5   0.0
Sheridan 8/30/26 82.4   2.8 45.4   7.7 67   21 20   1 4.0   0.6 WNW | 284 20.9   8.3 NW | 325 1809 0.00 0.05 - 1.1   0.0 72.2   2.2 5   7 12.6   0.1
Ruhenstroth 8/30/26 82.0   2.4 50.4   2.1 54   38 16   0 3.7   3.6 W | 276 19.5   7.7 NW | 314 1727 0.00 0.06 - 6.9   0.1 70.2   0.8 7   7 12.7   0.1
Double Spring 8/30/26 78.2   3.5 38.8   10.7 71   21 18   2 4.1   1.3 NNW | 337 17.8   7.8 N | 5 1624 0.00 0.14 - 25.6   0.1 65.3   1.3 9   9 12.6   0.1
North Topaz Lake 8/30/26 80.7   3.1 57.9   0.8 45   41 17   3 5.1   0.7 WNW | 300 19.9   5.3 SSE | 147 1803 0.00 0.22 - 7.5   0.1 73.2   3.5 7   9 12.7   0.2
Wild Oat Mountain 8/30/26 78.0   2.4 54.1   2.2 42   37 18   2 4.8   3.4 N | 10 19.6   9.7 ENE | 78 1608 0.00 0.13 - 5.8   0.0 70.5   3.6 7   9 12.7   0.2
Smith Valley 8/30/26 82.8   0.6 50.0   4.2 51   43 17   1 3.5   2.5 NNW | 342 14.3   15.5 W | 274 2253 0.00 0.12 - 2.8   0.0 72.2   0.7 8   15 12.7   0.1
Pine Grove Mountain 8/30/26 69.6   0.7 51.4   0.6 40   38 19   1 4.8   4.2 N | 11 17.9   13.7 ENE | 75 1131 0.00 0.11 - 7.4   0.1 63.5   0.5 6   6 12.7   0.1
Paradise Hill 8/30/26 79.8   2.6 46.5   4.2 46   48 16   2 5.9   2.3 N | 5 26.8   9.2 WNW | 298 1430 0.00 0.02 - 10.3   0.1 69.5   0.6 6   7 12.7   0.2
Winnemucca 8/30/26 81.3   1.2 49.6   3.8 42   44 13   6 5.1   2.6 NNE | 18 18.4   13.0 W | 264 1424 0.00 0.02 - 5.8   0.0 69.8   2.9 6   4 12.6   0.1
NE Elko 8/30/26 80.8   0.1 45.2   1.5 64   33 12   2 4.0   4.6 ENE | 74 21.7   5.1 SW | 230 1618 0.00 0.02 - 5.8   0.0 65.6   10.2 4   1 12.5   0.0
North Elko 8/30/26 78.4   0.8 54.1   2.1 48   40 12   4 7.1   0.9 WNW | 295 20.7   14.9 SW | 230 1552 0.00 0.05 - 24.9   0.1 69.8   1.6 6   7 12.6   0.0
South Elko 8/30/26 - 58.7   3.9 97   3 18   15 6.1   0.3 NW | 316 23.4   7.1 WNW | 282 1535 0.00 0.03 - 13.8   0.0 72.3   1.9 0   0 12.6   0.1
Lamoille 8/30/26 77.6   0.5 47.9   13.7 58   19 14   2 5.7   3.3 SSW | 204 22.1   4.7 WSW | 257 1454 0.00 0.02 - 6.6   0.1 67.0   1.7 6   0 12.6   0.2
Reid Gardner Sub 8/30/26 101.4   6.3 76.4   10.4 30   8 15   2 8.8   0.5 SSW | 204 28.4   2.0 S | 182 1230 0.00 0.00 - 26.1   0.2 94.1   5.2 2   0 12.6   0.0
Corn Creek 8/30/26 95.2   3.8 77.7   6.0 30   2 15   4 7.0   1.2 S | 182 34.4   1.6 ESE | 104 1503 0.00 0.00 - 3.2   0.0 87.3   6.1 2   0 12.5   0.0
Lucky Strike 8/30/26 83.4   4.6 72.9   2.1 31   0 15   5 5.8   3.9 WSW | 246 29.6   2.6 S | 178 1521 0.00 0.00 - 3.2   0.0 76.7   7.3 3   0 12.6   0.0
Lower Angel Peak 8/30/26 76.8   6.3 64.7   4.0 42   3 20   5 4.5   1.6 SSE | 161 21.6   7.0 SW | 215 1459 0.00 0.00 - 3.2   0.0 68.8   9.2 3   0 12.6   0.0
Angel Peak 8/30/26 63.5   5.5 57.3   2.1 48   3 24   8 8.5   4.7 S | 170 36.4   0.5 SSW | 198 1427 0.00 0.00 - 2.5   0.1 60.5   5.6 6   0 12.5   0.0
Upper Kyle Canyon 8/30/26 70.9   2.5 61.2   0.2 44   6 25   7 6.1   2.5 NNW | 331 36.1   0.9 ESE | 119 1415 0.00 0.00 - 7.8   0.0 69.2   3.1 6   0 12.6   0.0
Mt Charleston 8/30/26 70.4   6.0 58.9   0.7 46   5 26   5 4.8   2.0 W | 268 28.3   3.1 SSW | 192 1254 0.00 0.00 - 13.5   0.0 71.2   2.6 11   1 12.6   0.0
Mid Kyle Canyon 8/30/26 76.5   5.4 64.8   2.2 41   2 22   5 7.5   0.0 WSW | 256 29.7   0.6 W | 260 1408 0.00 0.00 - 5.9   0.1 69.3   9.3 6   0 12.7   0.0
Blue Diamond 8/30/26 92.1   4.7 77.0   5.5 32   1 18   1 6.5   3.5 WNW | 282 26.7   3.4 W | 273 1330 0.00 0.00 - 1.3   0.0 - - 12.6   0.0
Artesian Sub 8/30/26 102.9   4.2 87.1   3.7 26   3 15   0 5.5   0.6 S | 176 22.5   1.9 SSE | 151 1147 0.00 0.00 - 11.8   0.0 - 0   0 12.7   0.0
North Henderson 8/30/26 103.0   3.7 90.5   3.5 40   11 14   2 8.3   1.1 SSW | 208 27.6   1.5 SSW | 200 0808 0.00 0.00 - 10.5   0.1 97.6   4.7 2   0 12.6   0.0
Sandy Valley 8/30/26 95.1   4.2 80.1   4.4 35   4 18   2 6.7   1.0 WSW | 255 26.1   0.4 WSW | 248 1515 0.00 0.00 - 8.9   0.3 88.3   4.2 4   1 12.6   0.0
Searchlight 8/30/26 94.8   4.9 76.2   2.7 60   19 21   1 7.9   0.4 S | 187 28.6   0.1 S | 183 1146 0.00 0.00 - 6.3   0.1 89.6   3.2 2   0 12.6   0.0
Laughlin 8/30/26 109.6   4.9 89.4   3.8 43   11 17   2 7.3   1.1 S | 177 39.0   8.7 SE | 144 1312 0.00 0.00 - 4.7 100.2   3.5 5   0 12.7   0.0
31Mission Hills 8/30/26 99.0   3.5 85.6   2.0 39   11 15   0 9.1   0.3 SW | 215 28.2   5.6 W | 276 1435 0.00 0.53 - 7.4   0.0 94.2   3.4 4   0 13.2   0.0
32 Enterprise Sierra Cliffs 8/30/26 94.4   4.5 82.9   2.9 27   0 13   3 13.6   0.0 SW | 219 31.9   5.1 SW | 220 1601 0.00 0.00 - 1.5   0.1 89.3   5.2 4   0 13.2   0.0
29 Calico Basin 8/30/26 90.8   4.8 81.5   2.4 23   5 16   2 12.1   1.8 SW | 225 32.8   0.9 WSW | 240 1412 0.00 0.00 - 2.8   0.2 86.0   5.4 3   0 13.2   0.0
28 Indian Springs 8/30/26 96.1   0.9 76.4   9.8 24   2 6   11 9.3   1.2 SW | 221 34.0   1.2 W | 260 1117 0.00 0.00 - 4.9   0.1 88.3   3.7 4   0 13.2   0.0
30 Jean 8/30/26 94.8   3.5 76.5   1.8 32   5 15   1 9.0   2.0 WSW | 246 32.4   0.1 WSW | 258 1337 0.00 0.00 - 5.6   0.2 87.5   4.6 3   0 13.2   0.0
VC Highlands NW 8/30/26 75.8   3.6 52.1   4.5 46   26 15   4 2.7   1.8 SE | 140 17.8   7.7 SW | 217 1342 0.00 0.12 - 1.6   0.0 65.7   0.5 8   5 13.1   0.0
Glenbrook-Spooner Summit 8/30/26 70.4   3.4 41.6   6.7 69   25 19   11 3.5   1.5 WSW | 255 18.1   7.3 WSW | 252 1702 0.00 0.31 - 7.8   0.0 60.5   0.9 10   10 13.2   0.0
Hobo Hot Springs 8/30/26 83.5   3.3 40.4   10.8 82   14 15   2 3.4   2.0 NW | 310 17.0   12.4 NW | 311 1603 0.00 0.13 - 1.0   0.0 67.2   0.0 9   10 13.2   0.0
Jack Valley Ranch 2 8/30/26 81.1   4.2 49.4   5.5 52   31 17   4 4.7   0.4 NNW | 340 18.5   5.2 WSW | 248 1546 0.00 0.23 - 2.1   0.0 70.9   2.0 7   11 13.2   0.0
Genoa North 2 8/30/26 82.3   3.2 49.2   5.4 54   38 17   3 3.3   0.6 W | 269 18.1   10.8 S | 172 1558 0.00 0.10 - 0.8   0.0 69.7   1.2 8   12 13.2   0.0
Mottsville 2 8/30/26 82.6   3.2 43.9   7.3 70   27 18   3 3.2   0.7 NNE | 21 31.9   1.4 NNW | 328 1922 0.00 0.18 - 1.2   0.0 67.8   0.7 10   15 13.2   0.0
Kingsbury Village 3 8/30/26 69.1   3.4 45.8   2.9 64   20 23   4 2.4   0.0 N | 7 10.2   6.1 S | 183 1148 0.00 0.29 - 3.2   0.1 58.4   1.0 13   19 13.2   0.0
Kingsbury-Benjamin Dr 2 8/30/26 70.3   2.4 48.3   2.9 58   23 23   3 1.5   0.5 WNW | 285 14.4   8.1 SSW | 206 1401 0.00 0.29 - 3.6   0.4 62.1   1.8 9   10 13.2   0.0
Smith Valley-Wellington 8/30/26 83.2   1.4 46.2   9.1 65   23 14   1 3.6   3.4 SSW | 199 13.3   15.9 N | 351 0255 0.00 0.03 - 3.6   0.0 71.2   0.9 7   6 13.2   0.0
Sheridan South 2 8/30/26 81.0   1.8 44.1   5.4 70   24 19   1 3.7   0.2 N | 349 21.5   8.1 W | 260 1904 0.00 0.07 - 0.5   0.0 69.1   1.1 9   11 13.2   0.0
Silver Springs 8/30/26 83.7   0.2 51.7   4.1 51   44 12   1 4.2   4.0 ENE | 76 15.8   21.2 N | 352 0933 0.00 0.08 - 5.1   0.0 74.0   1.1 8   9 13.1   0.0
Fernley 8/30/26 83.3   0.8 53.4   0.7 37   58 12   2 4.8   2.0 SE | 144 22.2   17.3 E | 92 1449 0.00 0.16 - 3.1   0.1 74.4   1.2 7   8 13.1   0.0
Spanish Springs 8/30/26 84.2   2.4 45.6   6.2 61   33 14   0 2.2   2.6 ENE | 76 20.7   2.6 NW | 323 1836 0.00 0.06 - 10.6   0.0 72.8   0.1 8   9 13.2   0.0
Suttcliffe South 2 8/30/26 81.5   2.8 45.8   8.8 48   35 15   1 4.9   4.5 NNW | 344 15.9   13.2 ENE | 64 1244 0.00 0.00 - 4.5   0.0 - 6   4 12.7   0.5
Lemmon Valley North 8/30/26 80.5   2.0 35.9   9.0 61   34 15   0 3.2   3.3 SW | 225 18.1   9.9 SW | 231 1851 0.00 0.02 - 2.1   0.0 65.9   1.2 7   6 13.2   0.0
Lemmon Valley NW 3 8/30/26 81.9   2.2 40.8   6.5 57   38 14   0 4.0   2.6 NE | 39 20.1   9.6 NNW | 331 1846 0.00 0.02 - 1.3   0.1 67.0   0.3 7   5 13.2   0.0
VC Highlands North 8/30/26 77.5   4.5 40.5   9.7 62   28 13   6 2.1   4.0 SSW | 206 16.6   12.6 SW | 218 1416 0.00 0.09 - 5.0   0.2 63.9   0.6 9   9 13.2   0.0
Upper Voltaire Cyn 8/30/26 77.3   3.2 57.0   0.1 41   35 17   6 5.7   0.8 WNW | 300 18.9   11.0 SSW | 202 1540 0.00 0.23 - 1.1   0.0 70.2   3.9 10   11 13.2   0.0
Yerington NW 8/30/26 82.0   1.2 47.7   4.2 83   14 15   3 3.7   3.6 NNE | 25 11.9   20.4 ENE | 62 1743 0.00 0.20 - 7.3   0.0 68.4   0.2 12   21 13.2   0.0
Spanish Springs SW 8/30/26 83.1   2.7 47.7   4.8 48   42 14   0 3.7   2.6 W | 276 20.7   8.0 WNW | 300 1906 0.00 0.05 - 1.5   0.1 71.1   0.8 8   8 13.2   0.0
Cosgrave 2 8/26/26 94.1   3.1 59.4   0.6 40   15 11   2 5.7   1.4 SSW | 205 26.1   5.0 WSW | 249 1345 0.00 0.00 - 4.0   0.1 82.4   4.3 5   1 13.2   0.0
Winnemucca-Grass Valley 2 8/30/26 80.8   0.3 40.4   14.8 78   10 13   4 4.4   2.6 ENE | 69 15.8   11.6 ENE | 64 1507 0.00 0.14 - 8.1   0.1 66.0   4.3 10   13 13.2   0.0
Winnemucca-Dutch Flat Rd 8/30/26 80.0   0.9 52.2   0.5 41   51 13   3 6.6   0.9 NNW | 343 29.6   3.7 WSW | 243 1616 0.00 0.07 - 6.2   0.0 67.4   0.7 7   14 13.2   0.0
Paradise Valley 2 8/30/26 79.4   0.0 42.0   8.8 61   24 14   4 3.7   1.6 WNW | 296 20.6   13.4 SE | 139 1416 0.00 0.14 - 12.8   0.2 63.5   2.1 7   3 13.2   0.0
Golconda 2 8/30/26 80.6   0.9 51.7   4.0 42   45 12   5 6.1   2.0 NNW | 327 26.8   4.8 NW | 308 1655 0.00 0.11 - 1.9   0.1 70.0   1.6 9   12 13.1   0.0
Battle Mountain - South 8/30/26 83.0   0.1 45.8   7.4 42   49 10   6 4.3   1.7 NNE | 22 20.1   10.2 W | 269 1353 0.00 0.01 - 9.1   0.0 70.8   2.6 5   6 13.1   0.0
Geiger Summit 8/30/26 74.0   4.3 52.1   1.4 100   0 100   0 2.9   3.1 ESE | 102 14.3   8.8 S | 178 1219 0.00 0.13 - 6.4   0.0 62.0   0.9 8   6 13.2   0.0
Combs Canyon 3 8/30/26 81.4   3.0 52.2   2.6 56   34 17   3 5.6   0.1 NW | 314 19.2   7.2 WNW | 300 1545 0.00 0.11 - 1.0   0.0 71.9   3.1 8   7 13.2   0.0
Clear Creek 8/30/26 78.4   4.2 47.2   8.6 50   28 17   7 3.2   2.3 SW | 235 17.9   9.9 W | 281 1622 0.00 0.23 - 3.4   0.0 65.8   0.4 10   9 13.1   0.0
Eastlake 2 8/30/26 80.6   3.0 45.0   6.9 74   8 15   4 4.5   1.7 SW | 219 22.7   4.6 WSW | 246 1926 0.00 0.11 - 3.4   0.0 66.8   1.7 8   5 13.3   0.0
Lovelock-Colado 2 8/30/26 83.5   1.0 46.5   7.9 48   45 12   4 5.2   0.2 NNE | 27 17.6   9.3 NNE | 19 0855 0.00 0.06 - - 69.8   0.0 7   8 13.1   0.0
Spanish Springs NW 8/30/26 84.0   1.8 45.2   6.2 61   33 14   0 2.7   2.3 SE | 132 19.1   6.8 NW | 311 1836 0.00 0.04 - 12.9   0.1 - 6   7 13.1   0.0
Battle Mountain NW 8/30/26 81.3   2.7 54.5   1.8 34   57 13   2 5.6   1.2 WNW | 299 24.7   4.8 NNW | 341 1445 0.00 0.02 - 9.1   0.1 71.8   0.3 5   5 13.2   0.0
Austin 2 8/30/26 76.7   0.1 40.2   6.7 60   33 11   6 6.0   2.0 W | 260 23.6   7.2 WNW | 302 1209 0.00 0.13 - 2.4   0.1 66.2   0.1 9   14 13.2   0.0
Elko-Osino 8/30/26 80.7   1.6 44.8   12.0 63   8 10   2 5.8   4.3 WNW | 282 22.6   8.8 SSW | 200 1247 0.00 0.00 - 1.5   0.1 68.6   6.4 7   0 13.1   0.0
Elko-Bill Fishpond 2 8/30/26 78.1   0.7 46.1   16.1 55   10 13   10 5.8   2.4 SW | 214 19.0   5.3 W | 270 1522 0.00 0.00 - 3.5   0.1 65.5   9.0 6   0 13.1   0.0
Spring Creek SE 2 8/30/26 80.6 46.4 62 11 7.1 NW | 324 21.0 WNW | 302 1717 0.00 0.00 - 0.4 74.9 6 13.0
Spring Creek NW 8/30/26 79.1 55.6 44 12 5.8 NW | 314 19.4 WNW | 292 1632 0.00 0.00 - 2.2 76.3 5 13.2
Max   109.6 90.5 100 100 13.6 - 39.0 - - 0.00 - - 42.7 100.2 20 13.3
Avg   - - - - 4.7 - - - - - - - 6.9 67.2 7 -
Min   63.5 32.3 23 6 0.0 - 7.8 - - 0.00 - - 0.4 -17.7 0 9.5

Fosberg 6Hr Max

Map

Hourly Data

Fosberg 6Hr Max

Map

Hourly Data